sensor_id;sensor_type;location;lat;lon;timestamp;P1;durP1;ratioP1;P2;durP2;ratioP2
14209;SDS011;7188;56.070;12.698;2023-12-28T00:05:29;10.07;;;2.40;;
14209;SDS011;7188;56.070;12.698;2023-12-28T00:11:17;16.13;;;2.63;;
14209;SDS011;7188;56.070;12.698;2023-12-28T00:17:14;7.83;;;2.87;;
14209;SDS011;7188;56.070;12.698;2023-12-28T00:19:46;20.23;;;3.17;;
14209;SDS011;7188;56.070;12.698;2023-12-28T00:22:20;9.87;;;1.90;;
14209;SDS011;7188;56.070;12.698;2023-12-28T00:24:46;19.33;;;3.00;;
14209;SDS011;7188;56.070;12.698;2023-12-28T00:30:43;14.97;;;3.30;;
14209;SDS011;7188;56.070;12.698;2023-12-28T00:33:09;10.03;;;2.83;;
14209;SDS011;7188;56.070;12.698;2023-12-28T00:35:55;12.77;;;3.83;;
14209;SDS011;7188;56.070;12.698;2023-12-28T00:38:24;17.33;;;3.57;;
14209;SDS011;7188;56.070;12.698;2023-12-28T00:40:56;11.80;;;3.80;;
14209;SDS011;7188;56.070;12.698;2023-12-28T00:43:38;13.43;;;3.27;;
14209;SDS011;7188;56.070;12.698;2023-12-28T00:49:44;13.97;;;3.90;;
14209;SDS011;7188;56.070;12.698;2023-12-28T00:52:22;17.80;;;3.50;;
14209;SDS011;7188;56.070;12.698;2023-12-28T00:58:47;10.87;;;3.03;;
14209;SDS011;7188;56.070;12.698;2023-12-28T01:01:13;13.07;;;3.23;;
14209;SDS011;7188;56.070;12.698;2023-12-28T01:07:03;11.83;;;2.40;;
14209;SDS011;7188;56.070;12.698;2023-12-28T01:09:33;9.00;;;2.33;;
14209;SDS011;7188;56.070;12.698;2023-12-28T01:11:59;10.20;;;2.30;;
14209;SDS011;7188;56.070;12.698;2023-12-28T01:18:01;5.47;;;2.63;;
14209;SDS011;7188;56.070;12.698;2023-12-28T01:20:26;7.43;;;1.90;;
14209;SDS011;7188;56.070;12.698;2023-12-28T01:22:52;8.53;;;1.83;;
14209;SDS011;7188;56.070;12.698;2023-12-28T01:25:36;5.10;;;2.30;;
14209;SDS011;7188;56.070;12.698;2023-12-28T01:34:29;6.13;;;1.70;;
14209;SDS011;7188;56.070;12.698;2023-12-28T01:37:04;5.30;;;1.23;;
14209;SDS011;7188;56.070;12.698;2023-12-28T01:39:36;8.37;;;2.30;;
14209;SDS011;7188;56.070;12.698;2023-12-28T01:42:05;7.23;;;2.60;;
14209;SDS011;7188;56.070;12.698;2023-12-28T01:44:36;4.43;;;2.00;;
14209;SDS011;7188;56.070;12.698;2023-12-28T01:47:05;9.90;;;2.43;;
14209;SDS011;7188;56.070;12.698;2023-12-28T01:52:54;8.37;;;2.97;;
14209;SDS011;7188;56.070;12.698;2023-12-28T01:58:44;9.33;;;2.43;;
14209;SDS011;7188;56.070;12.698;2023-12-28T02:03:52;11.90;;;3.10;;
14209;SDS011;7188;56.070;12.698;2023-12-28T02:06:23;11.70;;;3.73;;
14209;SDS011;7188;56.070;12.698;2023-12-28T02:09:07;14.70;;;5.37;;
14209;SDS011;7188;56.070;12.698;2023-12-28T02:11:32;13.30;;;4.40;;
14209;SDS011;7188;56.070;12.698;2023-12-28T02:20:30;12.03;;;5.30;;
14209;SDS011;7188;56.070;12.698;2023-12-28T02:29:00;11.23;;;4.27;;
14209;SDS011;7188;56.070;12.698;2023-12-28T02:31:45;11.10;;;4.67;;
14209;SDS011;7188;56.070;12.698;2023-12-28T02:37:28;13.73;;;5.37;;
14209;SDS011;7188;56.070;12.698;2023-12-28T02:43:22;21.10;;;6.43;;
14209;SDS011;7188;56.070;12.698;2023-12-28T02:46:01;18.27;;;5.97;;
14209;SDS011;7188;56.070;12.698;2023-12-28T02:48:26;18.37;;;5.70;;
14209;SDS011;7188;56.070;12.698;2023-12-28T02:54:01;18.17;;;5.47;;
14209;SDS011;7188;56.070;12.698;2023-12-28T02:56:30;24.10;;;6.90;;
14209;SDS011;7188;56.070;12.698;2023-12-28T02:59:08;22.47;;;6.13;;
14209;SDS011;7188;56.070;12.698;2023-12-28T03:01:36;18.53;;;6.53;;
14209;SDS011;7188;56.070;12.698;2023-12-28T03:04:14;13.63;;;5.23;;
14209;SDS011;7188;56.070;12.698;2023-12-28T03:06:40;25.87;;;6.30;;
14209;SDS011;7188;56.070;12.698;2023-12-28T03:12:28;17.57;;;5.50;;
14209;SDS011;7188;56.070;12.698;2023-12-28T03:14:54;17.97;;;5.87;;
14209;SDS011;7188;56.070;12.698;2023-12-28T03:17:20;21.90;;;6.63;;
14209;SDS011;7188;56.070;12.698;2023-12-28T03:19:51;17.00;;;6.90;;
14209;SDS011;7188;56.070;12.698;2023-12-28T03:22:20;19.57;;;5.90;;
14209;SDS011;7188;56.070;12.698;2023-12-28T03:24:55;16.47;;;4.50;;
14209;SDS011;7188;56.070;12.698;2023-12-28T03:27:27;15.83;;;6.90;;
14209;SDS011;7188;56.070;12.698;2023-12-28T03:30:02;16.43;;;6.10;;
14209;SDS011;7188;56.070;12.698;2023-12-28T03:42:19;13.97;;;6.13;;
14209;SDS011;7188;56.070;12.698;2023-12-28T03:47:47;15.43;;;6.40;;
14209;SDS011;7188;56.070;12.698;2023-12-28T03:50:22;18.27;;;7.23;;
14209;SDS011;7188;56.070;12.698;2023-12-28T03:58:48;18.13;;;7.87;;
14209;SDS011;7188;56.070;12.698;2023-12-28T04:01:53;20.13;;;8.00;;
14209;SDS011;7188;56.070;12.698;2023-12-28T04:04:24;19.53;;;7.03;;
14209;SDS011;7188;56.070;12.698;2023-12-28T04:16:53;17.97;;;8.73;;
14209;SDS011;7188;56.070;12.698;2023-12-28T04:19:19;21.33;;;8.47;;
14209;SDS011;7188;56.070;12.698;2023-12-28T04:31:10;13.97;;;8.03;;
14209;SDS011;7188;56.070;12.698;2023-12-28T04:33:39;13.87;;;8.60;;
14209;SDS011;7188;56.070;12.698;2023-12-28T04:39:29;17.57;;;9.47;;
14209;SDS011;7188;56.070;12.698;2023-12-28T04:42:30;21.27;;;9.17;;
14209;SDS011;7188;56.070;12.698;2023-12-28T04:48:38;15.30;;;9.90;;
14209;SDS011;7188;56.070;12.698;2023-12-28T04:51:15;22.17;;;10.03;;
14209;SDS011;7188;56.070;12.698;2023-12-28T04:56:33;20.50;;;9.23;;
14209;SDS011;7188;56.070;12.698;2023-12-28T05:11:36;17.07;;;10.03;;
14209;SDS011;7188;56.070;12.698;2023-12-28T05:17:30;20.87;;;10.73;;
14209;SDS011;7188;56.070;12.698;2023-12-28T05:20:22;25.53;;;11.20;;
14209;SDS011;7188;56.070;12.698;2023-12-28T05:22:54;21.73;;;10.40;;
14209;SDS011;7188;56.070;12.698;2023-12-28T05:25:26;18.10;;;10.07;;
14209;SDS011;7188;56.070;12.698;2023-12-28T05:28:00;20.67;;;9.03;;
14209;SDS011;7188;56.070;12.698;2023-12-28T05:31:11;18.17;;;10.00;;
14209;SDS011;7188;56.070;12.698;2023-12-28T05:34:07;22.53;;;8.70;;
14209;SDS011;7188;56.070;12.698;2023-12-28T05:49:44;14.27;;;8.67;;
14209;SDS011;7188;56.070;12.698;2023-12-28T05:52:33;23.57;;;9.37;;
14209;SDS011;7188;56.070;12.698;2023-12-28T05:54:59;18.53;;;8.40;;
14209;SDS011;7188;56.070;12.698;2023-12-28T05:57:25;20.37;;;8.70;;
14209;SDS011;7188;56.070;12.698;2023-12-28T05:59:54;16.40;;;8.60;;
14209;SDS011;7188;56.070;12.698;2023-12-28T06:02:20;19.87;;;7.30;;
14209;SDS011;7188;56.070;12.698;2023-12-28T06:04:46;17.07;;;8.07;;
14209;SDS011;7188;56.070;12.698;2023-12-28T06:13:16;21.97;;;7.10;;
14209;SDS011;7188;56.070;12.698;2023-12-28T06:15:41;15.50;;;8.10;;
14209;SDS011;7188;56.070;12.698;2023-12-28T06:21:29;16.07;;;7.87;;
14209;SDS011;7188;56.070;12.698;2023-12-28T06:27:21;18.77;;;6.47;;
14209;SDS011;7188;56.070;12.698;2023-12-28T06:33:10;18.53;;;7.70;;
14209;SDS011;7188;56.070;12.698;2023-12-28T06:35:39;18.30;;;6.70;;
14209;SDS011;7188;56.070;12.698;2023-12-28T06:41:27;12.20;;;5.77;;
14209;SDS011;7188;56.070;12.698;2023-12-28T06:43:52;13.53;;;5.93;;
14209;SDS011;7188;56.070;12.698;2023-12-28T06:52:32;18.10;;;5.80;;
14209;SDS011;7188;56.070;12.698;2023-12-28T07:01:51;19.27;;;6.57;;
14209;SDS011;7188;56.070;12.698;2023-12-28T07:04:26;13.53;;;5.80;;
14209;SDS011;7188;56.070;12.698;2023-12-28T07:06:54;15.90;;;6.77;;
14209;SDS011;7188;56.070;12.698;2023-12-28T07:12:42;20.60;;;6.63;;
14209;SDS011;7188;56.070;12.698;2023-12-28T07:15:11;14.93;;;7.40;;
14209;SDS011;7188;56.070;12.698;2023-12-28T07:17:39;15.30;;;6.80;;
14209;SDS011;7188;56.070;12.698;2023-12-28T07:20:08;14.03;;;7.57;;
14209;SDS011;7188;56.070;12.698;2023-12-28T07:22:40;19.33;;;6.50;;
14209;SDS011;7188;56.070;12.698;2023-12-28T07:25:06;21.07;;;8.17;;
14209;SDS011;7188;56.070;12.698;2023-12-28T07:27:32;18.83;;;8.70;;
14209;SDS011;7188;56.070;12.698;2023-12-28T07:30:11;20.70;;;8.00;;
14209;SDS011;7188;56.070;12.698;2023-12-28T07:32:36;17.53;;;8.30;;
14209;SDS011;7188;56.070;12.698;2023-12-28T07:35:05;21.10;;;8.47;;
14209;SDS011;7188;56.070;12.698;2023-12-28T07:37:31;19.67;;;7.87;;
14209;SDS011;7188;56.070;12.698;2023-12-28T07:40:00;21.27;;;7.97;;
14209;SDS011;7188;56.070;12.698;2023-12-28T07:49:04;18.50;;;5.27;;
14209;SDS011;7188;56.070;12.698;2023-12-28T07:51:39;16.00;;;4.43;;
14209;SDS011;7188;56.070;12.698;2023-12-28T07:54:04;13.90;;;4.57;;
14209;SDS011;7188;56.070;12.698;2023-12-28T07:56:33;19.63;;;4.70;;
14209;SDS011;7188;56.070;12.698;2023-12-28T07:58:59;18.50;;;5.10;;
14209;SDS011;7188;56.070;12.698;2023-12-28T08:01:27;16.90;;;4.93;;
14209;SDS011;7188;56.070;12.698;2023-12-28T08:03:56;11.33;;;4.03;;
14209;SDS011;7188;56.070;12.698;2023-12-28T08:06:25;14.50;;;4.60;;
14209;SDS011;7188;56.070;12.698;2023-12-28T08:08:50;20.33;;;5.40;;
14209;SDS011;7188;56.070;12.698;2023-12-28T08:11:16;19.37;;;4.70;;
14209;SDS011;7188;56.070;12.698;2023-12-28T08:16:50;17.43;;;4.63;;
14209;SDS011;7188;56.070;12.698;2023-12-28T08:22:38;23.93;;;5.50;;
14209;SDS011;7188;56.070;12.698;2023-12-28T08:25:07;16.60;;;4.53;;
14209;SDS011;7188;56.070;12.698;2023-12-28T08:30:51;16.57;;;4.73;;
14209;SDS011;7188;56.070;12.698;2023-12-28T08:33:17;15.10;;;4.83;;
14209;SDS011;7188;56.070;12.698;2023-12-28T08:35:52;24.60;;;5.43;;
14209;SDS011;7188;56.070;12.698;2023-12-28T08:38:17;19.85;;;5.35;;
14209;SDS011;7188;56.070;12.698;2023-12-28T08:47:06;14.40;;;5.33;;
14209;SDS011;7188;56.070;12.698;2023-12-28T08:53:00;20.00;;;6.50;;
14209;SDS011;7188;56.070;12.698;2023-12-28T08:55:25;16.20;;;5.20;;
14209;SDS011;7188;56.070;12.698;2023-12-28T09:01:16;12.60;;;4.40;;
14209;SDS011;7188;56.070;12.698;2023-12-28T09:03:43;19.43;;;4.63;;
14209;SDS011;7188;56.070;12.698;2023-12-28T09:06:29;12.30;;;5.13;;
14209;SDS011;7188;56.070;12.698;2023-12-28T09:08:55;12.70;;;4.50;;
14209;SDS011;7188;56.070;12.698;2023-12-28T09:11:21;11.33;;;4.10;;
14209;SDS011;7188;56.070;12.698;2023-12-28T09:13:56;18.07;;;4.17;;
14209;SDS011;7188;56.070;12.698;2023-12-28T09:16:21;17.33;;;4.03;;
14209;SDS011;7188;56.070;12.698;2023-12-28T09:18:50;20.00;;;5.23;;
14209;SDS011;7188;56.070;12.698;2023-12-28T09:21:16;18.27;;;4.30;;
14209;SDS011;7188;56.070;12.698;2023-12-28T09:23:42;11.10;;;3.47;;
14209;SDS011;7188;56.070;12.698;2023-12-28T09:26:14;12.80;;;3.33;;
14209;SDS011;7188;56.070;12.698;2023-12-28T09:28:39;15.03;;;3.53;;
14209;SDS011;7188;56.070;12.698;2023-12-28T09:31:05;7.63;;;3.10;;
14209;SDS011;7188;56.070;12.698;2023-12-28T09:33:35;14.77;;;3.77;;
14209;SDS011;7188;56.070;12.698;2023-12-28T09:36:03;19.30;;;3.87;;
14209;SDS011;7188;56.070;12.698;2023-12-28T09:38:29;9.17;;;3.10;;
14209;SDS011;7188;56.070;12.698;2023-12-28T09:40:55;10.03;;;2.90;;
14209;SDS011;7188;56.070;12.698;2023-12-28T09:43:35;9.23;;;2.50;;
14209;SDS011;7188;56.070;12.698;2023-12-28T09:46:10;16.77;;;2.37;;
14209;SDS011;7188;56.070;12.698;2023-12-28T09:48:36;18.03;;;2.57;;
14209;SDS011;7188;56.070;12.698;2023-12-28T09:51:12;17.27;;;2.40;;
14209;SDS011;7188;56.070;12.698;2023-12-28T09:53:37;15.63;;;2.87;;
14209;SDS011;7188;56.070;12.698;2023-12-28T09:56:07;10.00;;;2.07;;
14209;SDS011;7188;56.070;12.698;2023-12-28T09:58:33;9.33;;;1.67;;
14209;SDS011;7188;56.070;12.698;2023-12-28T10:01:11;8.93;;;1.83;;
14209;SDS011;7188;56.070;12.698;2023-12-28T10:03:51;13.57;;;2.23;;
14209;SDS011;7188;56.070;12.698;2023-12-28T10:06:17;9.90;;;2.53;;
14209;SDS011;7188;56.070;12.698;2023-12-28T10:08:49;11.93;;;2.73;;
14209;SDS011;7188;56.070;12.698;2023-12-28T10:18:01;10.77;;;1.17;;
14209;SDS011;7188;56.070;12.698;2023-12-28T10:20:28;8.17;;;1.40;;
14209;SDS011;7188;56.070;12.698;2023-12-28T10:22:57;7.90;;;1.63;;
14209;SDS011;7188;56.070;12.698;2023-12-28T10:25:37;12.37;;;1.93;;
14209;SDS011;7188;56.070;12.698;2023-12-28T10:28:04;10.50;;;1.40;;
14209;SDS011;7188;56.070;12.698;2023-12-28T10:30:38;12.40;;;2.20;;
14209;SDS011;7188;56.070;12.698;2023-12-28T10:36:27;10.63;;;1.70;;
14209;SDS011;7188;56.070;12.698;2023-12-28T10:45:16;9.60;;;2.07;;
14209;SDS011;7188;56.070;12.698;2023-12-28T10:47:58;14.93;;;2.47;;
14209;SDS011;7188;56.070;12.698;2023-12-28T10:50:38;9.00;;;1.43;;
14209;SDS011;7188;56.070;12.698;2023-12-28T10:58:55;10.30;;;2.43;;
14209;SDS011;7188;56.070;12.698;2023-12-28T11:04:40;11.63;;;2.10;;
14209;SDS011;7188;56.070;12.698;2023-12-28T11:07:20;11.00;;;1.93;;
14209;SDS011;7188;56.070;12.698;2023-12-28T11:13:11;6.73;;;1.90;;
14209;SDS011;7188;56.070;12.698;2023-12-28T11:15:46;8.13;;;2.17;;
14209;SDS011;7188;56.070;12.698;2023-12-28T11:21:36;9.40;;;2.60;;
14209;SDS011;7188;56.070;12.698;2023-12-28T11:27:25;11.40;;;1.93;;
14209;SDS011;7188;56.070;12.698;2023-12-28T11:30:01;4.10;;;1.10;;
14209;SDS011;7188;56.070;12.698;2023-12-28T11:42:29;6.27;;;1.03;;
14209;SDS011;7188;56.070;12.698;2023-12-28T11:44:55;3.27;;;0.90;;
14209;SDS011;7188;56.070;12.698;2023-12-28T11:47:24;6.77;;;1.27;;
14209;SDS011;7188;56.070;12.698;2023-12-28T11:49:55;3.17;;;0.97;;
14209;SDS011;7188;56.070;12.698;2023-12-28T11:52:37;4.43;;;1.17;;
14209;SDS011;7188;56.070;12.698;2023-12-28T11:55:03;7.93;;;1.67;;
14209;SDS011;7188;56.070;12.698;2023-12-28T12:03:38;8.67;;;1.73;;
14209;SDS011;7188;56.070;12.698;2023-12-28T12:06:04;11.57;;;2.07;;
14209;SDS011;7188;56.070;12.698;2023-12-28T12:08:33;12.93;;;1.87;;
14209;SDS011;7188;56.070;12.698;2023-12-28T12:11:02;10.23;;;1.83;;
14209;SDS011;7188;56.070;12.698;2023-12-28T12:16:24;10.60;;;1.63;;
14209;SDS011;7188;56.070;12.698;2023-12-28T12:18:49;8.13;;;1.67;;
14209;SDS011;7188;56.070;12.698;2023-12-28T12:21:18;7.83;;;1.40;;
14209;SDS011;7188;56.070;12.698;2023-12-28T12:27:12;7.60;;;1.33;;
14209;SDS011;7188;56.070;12.698;2023-12-28T12:29:38;9.10;;;2.27;;
14209;SDS011;7188;56.070;12.698;2023-12-28T12:38:52;10.83;;;1.90;;
14209;SDS011;7188;56.070;12.698;2023-12-28T12:41:21;13.13;;;2.30;;
14209;SDS011;7188;56.070;12.698;2023-12-28T12:44:07;14.97;;;4.00;;
14209;SDS011;7188;56.070;12.698;2023-12-28T12:46:35;20.40;;;3.53;;
14209;SDS011;7188;56.070;12.698;2023-12-28T12:49:10;16.27;;;3.87;;
14209;SDS011;7188;56.070;12.698;2023-12-28T12:51:35;24.93;;;5.33;;
14209;SDS011;7188;56.070;12.698;2023-12-28T12:56:50;25.87;;;3.83;;
14209;SDS011;7188;56.070;12.698;2023-12-28T12:59:16;36.00;;;5.57;;
14209;SDS011;7188;56.070;12.698;2023-12-28T13:01:43;19.53;;;4.53;;
14209;SDS011;7188;56.070;12.698;2023-12-28T13:04:20;26.97;;;4.43;;
14209;SDS011;7188;56.070;12.698;2023-12-28T13:06:46;25.53;;;4.90;;
14209;SDS011;7188;56.070;12.698;2023-12-28T13:09:12;34.33;;;5.17;;
14209;SDS011;7188;56.070;12.698;2023-12-28T13:11:38;30.87;;;5.37;;
14209;SDS011;7188;56.070;12.698;2023-12-28T13:14:18;27.00;;;5.00;;
14209;SDS011;7188;56.070;12.698;2023-12-28T13:20:11;27.20;;;5.77;;
14209;SDS011;7188;56.070;12.698;2023-12-28T13:22:37;23.30;;;5.57;;
14209;SDS011;7188;56.070;12.698;2023-12-28T13:25:03;34.87;;;6.07;;
14209;SDS011;7188;56.070;12.698;2023-12-28T13:27:41;29.83;;;4.83;;
14209;SDS011;7188;56.070;12.698;2023-12-28T13:30:07;31.07;;;5.93;;
14209;SDS011;7188;56.070;12.698;2023-12-28T13:32:33;25.30;;;4.80;;
14209;SDS011;7188;56.070;12.698;2023-12-28T13:35:01;23.83;;;4.40;;
14209;SDS011;7188;56.070;12.698;2023-12-28T13:37:28;29.43;;;5.87;;
14209;SDS011;7188;56.070;12.698;2023-12-28T13:43:16;34.97;;;5.87;;
14209;SDS011;7188;56.070;12.698;2023-12-28T13:49:04;33.47;;;6.93;;
14209;SDS011;7188;56.070;12.698;2023-12-28T13:51:30;33.67;;;5.27;;
14209;SDS011;7188;56.070;12.698;2023-12-28T14:00:25;30.27;;;5.47;;
14209;SDS011;7188;56.070;12.698;2023-12-28T14:05:57;30.70;;;6.17;;
14209;SDS011;7188;56.070;12.698;2023-12-28T14:08:22;28.67;;;6.07;;
14209;SDS011;7188;56.070;12.698;2023-12-28T14:14:58;23.80;;;4.90;;
14209;SDS011;7188;56.070;12.698;2023-12-28T14:24:11;26.60;;;4.80;;
14209;SDS011;7188;56.070;12.698;2023-12-28T14:30:02;30.73;;;4.67;;
14209;SDS011;7188;56.070;12.698;2023-12-28T14:32:46;18.73;;;3.57;;
14209;SDS011;7188;56.070;12.698;2023-12-28T14:35:34;25.33;;;4.07;;
14209;SDS011;7188;56.070;12.698;2023-12-28T14:38:03;22.57;;;4.07;;
14209;SDS011;7188;56.070;12.698;2023-12-28T14:43:35;20.43;;;3.80;;
14209;SDS011;7188;56.070;12.698;2023-12-28T14:46:04;21.53;;;3.53;;
14209;SDS011;7188;56.070;12.698;2023-12-28T14:48:35;23.43;;;4.00;;
14209;SDS011;7188;56.070;12.698;2023-12-28T14:51:13;17.53;;;4.47;;
14209;SDS011;7188;56.070;12.698;2023-12-28T14:53:57;22.67;;;3.60;;
14209;SDS011;7188;56.070;12.698;2023-12-28T15:02:36;23.07;;;5.17;;
14209;SDS011;7188;56.070;12.698;2023-12-28T15:05:22;21.60;;;3.50;;
14209;SDS011;7188;56.070;12.698;2023-12-28T15:11:13;18.60;;;2.90;;
14209;SDS011;7188;56.070;12.698;2023-12-28T15:13:42;16.83;;;3.30;;
14209;SDS011;7188;56.070;12.698;2023-12-28T15:16:09;20.60;;;3.80;;
14209;SDS011;7188;56.070;12.698;2023-12-28T15:18:38;20.27;;;3.67;;
14209;SDS011;7188;56.070;12.698;2023-12-28T15:21:05;22.03;;;3.83;;
14209;SDS011;7188;56.070;12.698;2023-12-28T15:23:31;20.70;;;3.20;;
14209;SDS011;7188;56.070;12.698;2023-12-28T15:25:57;24.90;;;4.40;;
14209;SDS011;7188;56.070;12.698;2023-12-28T15:28:23;21.43;;;3.40;;
14209;SDS011;7188;56.070;12.698;2023-12-28T15:30:49;24.83;;;3.73;;
14209;SDS011;7188;56.070;12.698;2023-12-28T15:33:20;19.13;;;3.47;;
14209;SDS011;7188;56.070;12.698;2023-12-28T15:36:18;15.20;;;2.73;;
14209;SDS011;7188;56.070;12.698;2023-12-28T15:38:44;21.03;;;3.23;;
14209;SDS011;7188;56.070;12.698;2023-12-28T15:41:28;19.60;;;3.50;;
14209;SDS011;7188;56.070;12.698;2023-12-28T15:47:36;19.20;;;3.47;;
14209;SDS011;7188;56.070;12.698;2023-12-28T15:50:11;20.03;;;3.30;;
14209;SDS011;7188;56.070;12.698;2023-12-28T15:52:37;13.83;;;3.23;;
14209;SDS011;7188;56.070;12.698;2023-12-28T15:55:24;22.43;;;4.20;;
14209;SDS011;7188;56.070;12.698;2023-12-28T16:00:48;24.10;;;4.80;;
14209;SDS011;7188;56.070;12.698;2023-12-28T16:06:06;26.20;;;5.03;;
14209;SDS011;7188;56.070;12.698;2023-12-28T16:11:52;20.93;;;4.90;;
14209;SDS011;7188;56.070;12.698;2023-12-28T16:17:45;19.40;;;4.33;;
14209;SDS011;7188;56.070;12.698;2023-12-28T16:20:21;25.67;;;5.17;;
14209;SDS011;7188;56.070;12.698;2023-12-28T16:22:56;30.47;;;4.77;;
14209;SDS011;7188;56.070;12.698;2023-12-28T16:25:25;28.17;;;4.93;;
14209;SDS011;7188;56.070;12.698;2023-12-28T16:28:00;22.53;;;4.50;;
14209;SDS011;7188;56.070;12.698;2023-12-28T16:30:32;19.53;;;4.30;;
14209;SDS011;7188;56.070;12.698;2023-12-28T16:33:03;25.43;;;4.67;;
14209;SDS011;7188;56.070;12.698;2023-12-28T16:35:38;22.77;;;4.60;;
14209;SDS011;7188;56.070;12.698;2023-12-28T16:38:04;29.07;;;6.60;;
14209;SDS011;7188;56.070;12.698;2023-12-28T16:40:31;35.60;;;6.23;;
14209;SDS011;7188;56.070;12.698;2023-12-28T16:42:56;26.33;;;4.93;;
14209;SDS011;7188;56.070;12.698;2023-12-28T16:45:22;19.47;;;3.87;;
14209;SDS011;7188;56.070;12.698;2023-12-28T16:47:48;25.40;;;5.57;;
14209;SDS011;7188;56.070;12.698;2023-12-28T16:53:27;26.43;;;5.07;;
14209;SDS011;7188;56.070;12.698;2023-12-28T16:55:54;28.77;;;5.07;;
14209;SDS011;7188;56.070;12.698;2023-12-28T17:01:42;23.03;;;4.10;;
14209;SDS011;7188;56.070;12.698;2023-12-28T17:07:30;23.90;;;4.60;;
14209;SDS011;7188;56.070;12.698;2023-12-28T17:09:55;22.73;;;4.10;;
14209;SDS011;7188;56.070;12.698;2023-12-28T17:12:27;25.50;;;5.60;;
14209;SDS011;7188;56.070;12.698;2023-12-28T17:15:17;23.10;;;4.83;;
14209;SDS011;7188;56.070;12.698;2023-12-28T17:20:52;25.63;;;5.10;;
14209;SDS011;7188;56.070;12.698;2023-12-28T17:23:21;26.90;;;6.80;;
14209;SDS011;7188;56.070;12.698;2023-12-28T17:26:26;24.20;;;5.80;;
14209;SDS011;7188;56.070;12.698;2023-12-28T17:29:31;28.77;;;5.33;;
14209;SDS011;7188;56.070;12.698;2023-12-28T17:32:03;27.20;;;6.43;;
14209;SDS011;7188;56.070;12.698;2023-12-28T17:34:36;28.13;;;5.30;;
14209;SDS011;7188;56.070;12.698;2023-12-28T17:37:02;32.07;;;5.37;;
14209;SDS011;7188;56.070;12.698;2023-12-28T17:39:28;30.87;;;7.33;;
14209;SDS011;7188;56.070;12.698;2023-12-28T17:41:54;24.00;;;5.40;;
14209;SDS011;7188;56.070;12.698;2023-12-28T17:44:24;23.90;;;6.33;;
14209;SDS011;7188;56.070;12.698;2023-12-28T17:47:02;30.67;;;6.30;;
14209;SDS011;7188;56.070;12.698;2023-12-28T17:49:37;27.80;;;6.07;;
14209;SDS011;7188;56.070;12.698;2023-12-28T17:52:06;28.60;;;6.30;;
14209;SDS011;7188;56.070;12.698;2023-12-28T17:54:47;29.03;;;6.73;;
14209;SDS011;7188;56.070;12.698;2023-12-28T17:57:16;35.30;;;6.77;;
14209;SDS011;7188;56.070;12.698;2023-12-28T17:59:42;34.53;;;7.07;;
14209;SDS011;7188;56.070;12.698;2023-12-28T18:02:20;45.67;;;7.27;;
14209;SDS011;7188;56.070;12.698;2023-12-28T18:04:48;42.13;;;7.33;;
14209;SDS011;7188;56.070;12.698;2023-12-28T18:07:49;38.50;;;8.17;;
14209;SDS011;7188;56.070;12.698;2023-12-28T18:10:15;30.73;;;6.03;;
14209;SDS011;7188;56.070;12.698;2023-12-28T18:12:40;25.60;;;5.47;;
14209;SDS011;7188;56.070;12.698;2023-12-28T18:15:09;29.43;;;5.70;;
14209;SDS011;7188;56.070;12.698;2023-12-28T18:17:35;40.97;;;7.67;;
14209;SDS011;7188;56.070;12.698;2023-12-28T18:20:00;35.57;;;7.67;;
14209;SDS011;7188;56.070;12.698;2023-12-28T18:22:29;27.97;;;6.73;;
14209;SDS011;7188;56.070;12.698;2023-12-28T18:25:04;34.07;;;6.77;;
14209;SDS011;7188;56.070;12.698;2023-12-28T18:27:51;50.67;;;7.57;;
14209;SDS011;7188;56.070;12.698;2023-12-28T18:30:17;29.17;;;7.10;;
14209;SDS011;7188;56.070;12.698;2023-12-28T18:32:55;33.13;;;8.83;;
14209;SDS011;7188;56.070;12.698;2023-12-28T18:35:21;35.33;;;7.33;;
14209;SDS011;7188;56.070;12.698;2023-12-28T18:37:48;37.20;;;8.93;;
14209;SDS011;7188;56.070;12.698;2023-12-28T18:40:20;38.63;;;7.97;;
14209;SDS011;7188;56.070;12.698;2023-12-28T18:42:46;41.83;;;8.17;;
14209;SDS011;7188;56.070;12.698;2023-12-28T18:45:12;33.57;;;6.93;;
14209;SDS011;7188;56.070;12.698;2023-12-28T18:47:38;41.77;;;8.63;;
14209;SDS011;7188;56.070;12.698;2023-12-28T18:50:05;39.90;;;8.10;;
14209;SDS011;7188;56.070;12.698;2023-12-28T18:52:32;40.53;;;7.83;;
14209;SDS011;7188;56.070;12.698;2023-12-28T18:54:57;45.47;;;7.67;;
14209;SDS011;7188;56.070;12.698;2023-12-28T18:57:27;35.57;;;8.27;;
14209;SDS011;7188;56.070;12.698;2023-12-28T18:59:53;33.50;;;7.23;;
14209;SDS011;7188;56.070;12.698;2023-12-28T19:02:22;42.83;;;7.70;;
14209;SDS011;7188;56.070;12.698;2023-12-28T19:04:48;38.30;;;7.07;;
14209;SDS011;7188;56.070;12.698;2023-12-28T19:07:14;40.90;;;7.73;;
14209;SDS011;7188;56.070;12.698;2023-12-28T19:09:40;36.87;;;8.07;;
14209;SDS011;7188;56.070;12.698;2023-12-28T19:12:08;32.43;;;7.53;;
14209;SDS011;7188;56.070;12.698;2023-12-28T19:14:54;31.37;;;6.80;;
14209;SDS011;7188;56.070;12.698;2023-12-28T19:17:23;41.17;;;8.27;;
14209;SDS011;7188;56.070;12.698;2023-12-28T19:19:49;52.57;;;8.07;;
14209;SDS011;7188;56.070;12.698;2023-12-28T19:22:21;36.33;;;7.10;;
14209;SDS011;7188;56.070;12.698;2023-12-28T19:24:52;40.33;;;6.77;;
14209;SDS011;7188;56.070;12.698;2023-12-28T19:27:18;44.33;;;7.40;;
14209;SDS011;7188;56.070;12.698;2023-12-28T19:29:47;40.57;;;7.10;;
14209;SDS011;7188;56.070;12.698;2023-12-28T19:32:16;46.83;;;8.73;;
14209;SDS011;7188;56.070;12.698;2023-12-28T19:34:41;27.60;;;6.10;;
14209;SDS011;7188;56.070;12.698;2023-12-28T19:37:07;37.43;;;7.53;;
14209;SDS011;7188;56.070;12.698;2023-12-28T19:39:32;39.03;;;6.60;;
14209;SDS011;7188;56.070;12.698;2023-12-28T19:42:01;43.00;;;7.83;;
14209;SDS011;7188;56.070;12.698;2023-12-28T19:44:29;39.40;;;7.47;;
14209;SDS011;7188;56.070;12.698;2023-12-28T19:47:04;32.20;;;6.43;;
14209;SDS011;7188;56.070;12.698;2023-12-28T19:49:36;37.07;;;7.47;;
14209;SDS011;7188;56.070;12.698;2023-12-28T19:52:02;35.33;;;7.17;;
14209;SDS011;7188;56.070;12.698;2023-12-28T19:54:30;30.73;;;5.83;;
14209;SDS011;7188;56.070;12.698;2023-12-28T19:56:59;29.93;;;6.30;;
14209;SDS011;7188;56.070;12.698;2023-12-28T19:59:30;28.87;;;5.97;;
14209;SDS011;7188;56.070;12.698;2023-12-28T20:01:56;32.57;;;7.53;;
14209;SDS011;7188;56.070;12.698;2023-12-28T20:04:34;33.63;;;7.20;;
14209;SDS011;7188;56.070;12.698;2023-12-28T20:07:03;37.50;;;8.73;;
14209;SDS011;7188;56.070;12.698;2023-12-28T20:09:29;29.23;;;6.83;;
14209;SDS011;7188;56.070;12.698;2023-12-28T20:11:55;32.10;;;7.30;;
14209;SDS011;7188;56.070;12.698;2023-12-28T20:14:23;33.77;;;7.20;;
14209;SDS011;7188;56.070;12.698;2023-12-28T20:16:55;34.00;;;6.57;;
14209;SDS011;7188;56.070;12.698;2023-12-28T20:19:23;36.87;;;7.17;;
14209;SDS011;7188;56.070;12.698;2023-12-28T20:21:56;39.10;;;7.53;;
14209;SDS011;7188;56.070;12.698;2023-12-28T20:24:24;42.77;;;7.37;;
14209;SDS011;7188;56.070;12.698;2023-12-28T20:26:53;48.33;;;8.80;;
14209;SDS011;7188;56.070;12.698;2023-12-28T20:29:25;44.43;;;7.73;;
14209;SDS011;7188;56.070;12.698;2023-12-28T20:31:51;44.57;;;9.20;;
14209;SDS011;7188;56.070;12.698;2023-12-28T20:34:17;35.37;;;7.57;;
14209;SDS011;7188;56.070;12.698;2023-12-28T20:36:46;47.37;;;8.10;;
14209;SDS011;7188;56.070;12.698;2023-12-28T20:39:12;45.63;;;8.90;;
14209;SDS011;7188;56.070;12.698;2023-12-28T20:41:40;37.90;;;8.63;;
14209;SDS011;7188;56.070;12.698;2023-12-28T20:44:06;47.07;;;9.13;;
14209;SDS011;7188;56.070;12.698;2023-12-28T20:46:35;41.53;;;7.37;;
14209;SDS011;7188;56.070;12.698;2023-12-28T20:49:03;37.60;;;7.20;;
14209;SDS011;7188;56.070;12.698;2023-12-28T20:51:29;48.07;;;7.30;;